Time;durP1;ratioP1;P1;durP2;ratioP2;P2;SDS_P1;SDS_P2;PMS_P1;PMS_P2;Temp;Humidity;BMP_temperature;BMP_pressure;BME280_temperature;BME280_humidity;BME280_pressure;Samples;Min_cycle;Max_cycle;Signal;HPM_P1;HPM_P2
2023/06/19 00:01:58;;;;;;;;;;;;;;;21.53;50.03;100595.03;5057801;28;4945;-78
2023/06/19 00:04:26;;;;;;;;;;;;;;;21.46;50.19;100593.75;5062115;28;4861;-77
2023/06/19 00:06:53;;;;;;;;;;;;;;;21.41;50.30;100591.03;5043017;28;5011;-76
2023/06/19 00:09:20;;;;;;;;;;;;;;;21.30;50.41;100590.34;5053061;28;5407;-77
2023/06/19 00:11:47;;;;;;;;;;;;;;;21.25;50.64;100591.19;5057901;28;4853;-77
2023/06/19 00:14:14;;;;;;;;;;;;;;;21.46;50.18;100589.06;5040975;28;5432;-77
2023/06/19 00:16:41;;;;;;;;;;;;;;;21.52;49.95;100590.63;5059184;28;4845;-77
2023/06/19 00:19:07;;;;;;;;;;;;;;;21.44;50.08;100594.03;5059835;28;4922;-77
2023/06/19 00:21:34;;;;;;;;;;;;;;;21.45;49.85;100592.13;5059120;28;4846;-77
2023/06/19 00:24:02;;;;;;;;;;;;;;;21.45;50.00;100583.91;5054436;28;4880;-78
2023/06/19 00:26:29;;;;;;;;;;;;;;;21.37;50.06;100590.81;5055574;28;4879;-77
2023/06/19 00:29:15;;;;;;;;;;;;;;;21.50;49.71;100584.66;5060250;28;4970;-77
2023/06/19 00:31:42;;;;;;;;;;;;;;;21.33;50.39;100587.00;5043252;28;4981;-77
2023/06/19 00:34:09;;;;;;;;;;;;;;;21.53;49.68;100584.06;5043672;28;4849;-77
2023/06/19 00:36:40;;;;;;;;;;;;;;;21.38;50.28;100584.22;5048735;28;4872;-78
2023/06/19 00:39:07;;;;;;;;;;;;;;;21.30;50.33;100582.94;5047276;28;4936;-77
2023/06/19 00:41:33;;;;;;;;;;;;;;;21.46;49.89;100585.50;5046553;28;4818;-78
2023/06/19 00:44:00;;;;;;;;;;;;;;;21.29;50.28;100577.72;5052846;28;5403;-76
2023/06/19 00:46:26;;;;;;;;;;;;;;;21.45;49.94;100581.16;5044749;28;4838;-77
2023/06/19 00:48:53;;;;;;;;;;;;;;;21.49;49.61;100579.44;5049103;28;4931;-77
2023/06/19 00:51:24;;;;;;;;;;;;;;;21.45;49.90;100573.75;5047874;28;5401;-76
2023/06/19 00:53:51;;;;;;;;;;;;;;;21.19;50.33;100581.41;5052382;28;5476;-77
2023/06/19 00:56:18;;;;;;;;;;;;;;;21.45;49.81;100575.69;5047230;28;5028;-77
2023/06/19 00:58:44;;;;;;;;;;;;;;;21.39;49.81;100574.09;5055496;28;4920;-77
2023/06/19 01:01:11;;;;;;;;;;;;;;;21.29;50.20;100578.53;5045393;28;4902;-77
2023/06/19 01:03:38;;;;;;;;;;;;;;;21.13;50.64;100574.34;5046057;28;5263;-76
2023/06/19 01:06:04;;;;;;;;;;;;;;;21.22;50.33;100571.78;5030413;28;4828;-76
2023/06/19 01:08:31;;;;;;;;;;;;;;;21.37;49.82;100574.38;5044262;28;5276;-76
2023/06/19 01:10:57;;;;;;;;;;;;;;;21.12;50.47;100577.34;5049959;28;4868;-76
2023/06/19 01:13:24;;;;;;;;;;;;;;;21.29;50.23;100562.09;5049119;28;5423;-77
2023/06/19 01:15:51;;;;;;;;;;;;;;;21.21;50.42;100565.50;5050451;28;5033;-78
2023/06/19 01:18:17;;;;;;;;;;;;;;;21.05;50.52;100559.34;5047620;28;4859;-76
2023/06/19 01:20:54;;;;;;;;;;;;;;;21.17;50.40;100563.63;5046546;28;4932;-78
2023/06/19 01:23:20;;;;;;;;;;;;;;;21.26;50.04;100564.59;5046511;28;5025;-76
2023/06/19 01:25:47;;;;;;;;;;;;;;;21.27;49.76;100563.53;5045413;28;5025;-76
2023/06/19 01:28:14;;;;;;;;;;;;;;;21.06;50.30;100565.63;5052124;28;4719;-77
2023/06/19 01:30:40;;;;;;;;;;;;;;;21.19;50.03;100558.69;5054257;28;4900;-77
2023/06/19 01:33:07;;;;;;;;;;;;;;;21.13;50.32;100565.31;5044547;28;6157;-77
2023/06/19 01:35:33;;;;;;;;;;;;;;;21.09;50.21;100559.59;5047209;28;4883;-78
2023/06/19 01:38:00;;;;;;;;;;;;;;;21.16;50.10;100565.53;5046207;28;5055;-77
2023/06/19 01:40:27;;;;;;;;;;;;;;;21.09;50.17;100565.09;5050980;28;5017;-77
2023/06/19 01:42:54;;;;;;;;;;;;;;;20.98;50.51;100560.81;5042758;28;4894;-76
2023/06/19 01:45:23;;;;;;;;;;;;;;;21.18;50.31;100565.25;5049474;28;4992;-77
2023/06/19 01:47:50;;;;;;;;;;;;;;;21.22;49.87;100567.13;5036438;28;4912;-76
2023/06/19 01:50:16;;;;;;;;;;;;;;;21.26;49.63;100561.88;5046271;28;4913;-78
2023/06/19 01:52:43;;;;;;;;;;;;;;;21.15;50.25;100565.81;5045321;28;4809;-78
2023/06/19 01:55:10;;;;;;;;;;;;;;;21.09;50.13;100554.94;5029888;28;5007;-78
2023/06/19 01:57:37;;;;;;;;;;;;;;;20.99;50.34;100559.69;5047424;28;5010;-79
2023/06/19 02:00:05;;;;;;;;;;;;;;;21.23;49.88;100554.25;5048550;28;4874;-78
2023/06/19 02:02:32;;;;;;;;;;;;;;;20.94;50.67;100562.47;5048286;28;4761;-77
2023/06/19 02:05:00;;;;;;;;;;;;;;;20.92;50.62;100556.50;5043557;28;5302;-79
2023/06/19 02:07:26;;;;;;;;;;;;;;;20.92;50.85;100557.31;5025351;28;4912;-77
2023/06/19 02:09:52;;;;;;;;;;;;;;;20.97;50.42;100553.69;5046711;28;4873;-77
2023/06/19 02:12:23;;;;;;;;;;;;;;;21.05;50.37;100551.13;5046206;28;4870;-76
2023/06/19 02:14:50;;;;;;;;;;;;;;;21.01;50.29;100552.84;5045629;28;5008;-78
2023/06/19 02:17:16;;;;;;;;;;;;;;;21.14;49.93;100553.25;5047469;28;5003;-78
2023/06/19 02:19:43;;;;;;;;;;;;;;;20.82;50.46;100550.03;5046120;28;4938;-77
2023/06/19 02:22:09;;;;;;;;;;;;;;;21.00;50.27;100548.47;5046044;28;5465;-78
2023/06/19 02:24:39;;;;;;;;;;;;;;;21.03;50.13;100550.63;5044411;28;4905;-77
2023/06/19 02:27:05;;;;;;;;;;;;;;;20.96;50.53;100543.84;5033030;28;4845;-76
2023/06/19 02:29:33;;;;;;;;;;;;;;;21.06;49.73;100546.47;5048956;28;4963;-79
2023/06/19 02:32:00;;;;;;;;;;;;;;;20.90;50.26;100543.09;5052240;28;5426;-79
2023/06/19 02:34:26;;;;;;;;;;;;;;;20.97;50.11;100548.22;5047472;28;5607;-77
2023/06/19 02:36:53;;;;;;;;;;;;;;;20.81;50.39;100542.88;5026496;28;4946;-79
2023/06/19 02:39:29;;;;;;;;;;;;;;;21.05;49.76;100542.91;5047486;28;5526;-77
2023/06/19 02:41:56;;;;;;;;;;;;;;;20.99;50.06;100538.59;5053764;28;4854;-77
2023/06/19 02:44:22;;;;;;;;;;;;;;;20.79;50.77;100534.16;5031859;28;5561;-76
2023/06/19 02:46:49;;;;;;;;;;;;;;;20.95;50.34;100540.31;5025669;28;4830;-77
2023/06/19 02:49:16;;;;;;;;;;;;;;;20.87;50.30;100536.25;5051249;28;5391;-76
2023/06/19 02:51:42;;;;;;;;;;;;;;;20.91;50.09;100535.69;5048958;28;4838;-77
2023/06/19 02:54:09;;;;;;;;;;;;;;;20.86;50.31;100533.81;5052831;28;4906;-76
2023/06/19 02:56:35;;;;;;;;;;;;;;;20.75;50.72;100530.38;5047415;28;4826;-76
2023/06/19 02:59:02;;;;;;;;;;;;;;;20.85;50.22;100526.69;5051561;28;4921;-76
2023/06/19 03:01:32;;;;;;;;;;;;;;;20.83;50.41;100527.00;5033287;28;5611;-76
2023/06/19 03:03:58;;;;;;;;;;;;;;;20.81;50.65;100521.00;5052824;28;4925;-78
2023/06/19 03:06:25;;;;;;;;;;;;;;;20.76;50.65;100523.78;5022897;28;4852;-74
2023/06/19 03:08:52;;;;;;;;;;;;;;;20.88;50.25;100526.13;5053713;28;4893;-76
2023/06/19 03:11:18;;;;;;;;;;;;;;;20.65;50.70;100519.53;5049140;28;5201;-76
2023/06/19 03:13:45;;;;;;;;;;;;;;;20.74;50.54;100522.47;5031005;28;4874;-75
2023/06/19 03:16:11;;;;;;;;;;;;;;;20.62;50.76;100509.16;5049769;28;5438;-77
2023/06/19 03:18:38;;;;;;;;;;;;;;;20.86;50.02;100509.19;5051871;28;4913;-77
2023/06/19 03:21:04;;;;;;;;;;;;;;;20.78;50.18;100509.81;5047812;28;5289;-76
2023/06/19 03:23:34;;;;;;;;;;;;;;;20.82;50.44;100505.38;5053647;28;5058;-76
2023/06/19 03:26:01;;;;;;;;;;;;;;;20.81;50.26;100506.50;5058837;28;5499;-76
2023/06/19 03:28:28;;;;;;;;;;;;;;;20.66;50.43;100507.47;5059655;28;5609;-76
2023/06/19 03:31:04;;;;;;;;;;;;;;;20.59;50.66;100507.00;5059735;28;4914;-80
2023/06/19 03:33:32;;;;;;;;;;;;;;;20.72;50.40;100505.50;5040856;28;4889;-79
2023/06/19 03:35:59;;;;;;;;;;;;;;;20.79;50.45;100509.50;5033849;28;4937;-77
2023/06/19 03:38:25;;;;;;;;;;;;;;;20.82;50.00;100506.22;5059862;28;5252;-76
2023/06/19 03:40:52;;;;;;;;;;;;;;;20.85;49.91;100508.38;5062943;28;5441;-78
2023/06/19 03:43:18;;;;;;;;;;;;;;;20.92;50.01;100504.50;5057923;28;5438;-78
2023/06/19 03:45:45;;;;;;;;;;;;;;;20.68;50.44;100502.53;5058272;28;5297;-78
2023/06/19 03:48:11;;;;;;;;;;;;;;;20.69;50.48;100504.16;5041601;28;4923;-78
2023/06/19 03:50:41;;;;;;;;;;;;;;;20.67;50.44;100500.88;5048286;28;5391;-78
2023/06/19 03:53:10;;;;;;;;;;;;;;;20.63;50.70;100508.84;5050780;28;4899;-77
2023/06/19 03:55:37;;;;;;;;;;;;;;;20.71;50.32;100507.44;5049151;28;4845;-77
2023/06/19 03:58:04;;;;;;;;;;;;;;;20.74;50.26;100514.25;5032090;28;4985;-77
2023/06/19 04:00:30;;;;;;;;;;;;;;;20.62;50.62;100506.41;5050990;28;4883;-78
2023/06/19 04:02:57;;;;;;;;;;;;;;;20.73;50.53;100515.34;5046559;28;4859;-77
2023/06/19 04:05:24;;;;;;;;;;;;;;;20.51;50.88;100516.59;5034842;28;4831;-77
2023/06/19 04:07:51;;;;;;;;;;;;;;;20.52;50.66;100518.25;5032541;28;4866;-78
2023/06/19 04:10:17;;;;;;;;;;;;;;;20.71;50.12;100517.56;5048316;28;4855;-77
2023/06/19 04:12:45;;;;;;;;;;;;;;;20.56;50.37;100510.28;5047806;28;4851;-77
2023/06/19 04:15:32;;;;;;;;;;;;;;;20.60;50.39;100514.09;5050317;28;4864;-77
2023/06/19 04:18:00;;;;;;;;;;;;;;;20.63;50.28;100510.78;5051361;28;5014;-75
2023/06/19 04:20:37;;;;;;;;;;;;;;;20.50;50.42;100508.66;5050739;28;4834;-77
2023/06/19 04:23:03;;;;;;;;;;;;;;;20.58;50.59;100508.09;5047662;28;5379;-77
2023/06/19 04:25:30;;;;;;;;;;;;;;;20.58;50.25;100506.16;5049955;28;4955;-77
2023/06/19 04:28:03;;;;;;;;;;;;;;;20.49;50.59;100498.84;5048621;28;4762;-78
2023/06/19 04:30:33;;;;;;;;;;;;;;;20.35;51.20;100502.25;5034038;28;4918;-79
2023/06/19 04:33:09;;;;;;;;;;;;;;;20.35;51.19;100498.66;5046756;28;4742;-77
2023/06/19 04:35:48;;;;;;;;;;;;;;;20.41;51.02;100505.72;5050692;28;4863;-79
2023/06/19 04:38:14;;;;;;;;;;;;;;;20.50;50.64;100505.94;5048460;28;4905;-77
2023/06/19 04:40:43;;;;;;;;;;;;;;;20.59;50.27;100507.00;5050825;28;4942;-76
2023/06/19 04:43:10;;;;;;;;;;;;;;;20.48;50.76;100514.44;5049184;28;5014;-75
2023/06/19 04:45:36;;;;;;;;;;;;;;;20.40;50.78;100512.31;5049360;28;5485;-76
2023/06/19 04:48:03;;;;;;;;;;;;;;;20.35;51.10;100509.59;5047768;28;4866;-78
2023/06/19 04:50:30;;;;;;;;;;;;;;;20.30;51.24;100505.00;5032572;28;5717;-76
2023/06/19 04:52:56;;;;;;;;;;;;;;;20.24;51.33;100513.56;5030723;28;4915;-77
2023/06/19 04:55:33;;;;;;;;;;;;;;;20.24;51.19;100513.56;5034081;28;4750;-74
2023/06/19 04:57:59;;;;;;;;;;;;;;;20.31;51.07;100512.09;5027288;28;5392;-76
2023/06/19 05:00:26;;;;;;;;;;;;;;;20.24;51.39;100510.81;5012627;28;4780;-77
2023/06/19 05:02:53;;;;;;;;;;;;;;;20.36;50.60;100517.53;5027534;28;4715;-77
2023/06/19 05:05:19;;;;;;;;;;;;;;;20.38;50.93;100523.56;5013951;28;5464;-78
2023/06/19 05:07:46;;;;;;;;;;;;;;;20.53;50.36;100524.53;5001957;28;5492;-78
2023/06/19 05:10:13;;;;;;;;;;;;;;;20.51;50.40;100527.53;5025795;28;5281;-76
2023/06/19 05:12:41;;;;;;;;;;;;;;;20.35;50.52;100524.13;5039069;28;4838;-77
2023/06/19 05:15:08;;;;;;;;;;;;;;;20.26;51.19;100525.81;5036869;28;4868;-77
2023/06/19 05:17:34;;;;;;;;;;;;;;;20.25;51.20;100526.13;5017619;28;5095;-75
2023/06/19 05:20:01;;;;;;;;;;;;;;;20.24;51.16;100529.97;5036092;28;5382;-76
2023/06/19 05:22:27;;;;;;;;;;;;;;;20.16;51.43;100534.91;5038234;28;4715;-76
2023/06/19 05:24:54;;;;;;;;;;;;;;;20.18;51.34;100535.47;5028990;28;4830;-75
2023/06/19 05:27:23;;;;;;;;;;;;;;;20.14;51.40;100533.56;5027523;28;5572;-76
2023/06/19 05:29:50;;;;;;;;;;;;;;;20.17;51.08;100538.47;5027667;28;4941;-76
2023/06/19 05:32:16;;;;;;;;;;;;;;;20.17;51.41;100536.53;5018697;28;4911;-78
2023/06/19 05:34:43;;;;;;;;;;;;;;;20.12;51.44;100546.72;5039666;28;5529;-75
2023/06/19 05:37:15;;;;;;;;;;;;;;;20.10;51.55;100536.06;5035199;28;5501;-77
2023/06/19 05:39:42;;;;;;;;;;;;;;;20.13;51.54;100537.41;5035364;28;4782;-78
2023/06/19 05:42:19;;;;;;;;;;;;;;;20.19;50.85;100539.81;5030508;28;4817;-75
2023/06/19 05:44:47;;;;;;;;;;;;;;;20.15;51.16;100543.41;5029383;28;5401;-77
2023/06/19 05:47:16;;;;;;;;;;;;;;;20.12;51.55;100546.72;5032358;28;4814;-75
2023/06/19 05:49:43;;;;;;;;;;;;;;;20.13;51.40;100546.41;5042788;28;4819;-78
2023/06/19 05:52:19;;;;;;;;;;;;;;;20.11;51.15;100543.13;5041903;28;4891;-76
2023/06/19 05:54:46;;;;;;;;;;;;;;;20.11;51.24;100561.47;5046303;28;5224;-76
2023/06/19 05:57:15;;;;;;;;;;;;;;;20.11;51.53;100554.06;5041480;28;5297;-77
2023/06/19 05:59:42;;;;;;;;;;;;;;;20.19;51.28;100552.66;5023495;28;4759;-76
2023/06/19 06:02:08;;;;;;;;;;;;;;;20.12;51.16;100561.19;5040820;28;5210;-76
2023/06/19 06:04:39;;;;;;;;;;;;;;;20.11;51.44;100561.47;5044590;28;5446;-77
2023/06/19 06:07:06;;;;;;;;;;;;;;;20.10;51.51;100573.50;5047894;28;4777;-75
2023/06/19 06:09:37;;;;;;;;;;;;;;;20.09;51.51;100572.69;5053357;28;4846;-76
2023/06/19 06:12:04;;;;;;;;;;;;;;;20.08;51.46;100567.50;5048538;28;5413;-76
2023/06/19 06:14:31;;;;;;;;;;;;;;;20.10;51.45;100574.31;5038584;28;4649;-76
2023/06/19 06:16:57;;;;;;;;;;;;;;;20.10;51.30;100568.84;5050344;28;4883;-75
2023/06/19 06:19:24;;;;;;;;;;;;;;;20.09;51.35;100569.97;5035319;28;5004;-76
2023/06/19 06:21:50;;;;;;;;;;;;;;;20.26;51.07;100571.50;5054329;28;4602;-76
2023/06/19 06:24:17;;;;;;;;;;;;;;;20.12;51.25;100572.13;5060468;28;5023;-77
2023/06/19 06:26:49;;;;;;;;;;;;;;;20.11;51.29;100572.41;5057779;28;5157;-77
2023/06/19 06:29:16;;;;;;;;;;;;;;;20.10;51.18;100581.72;5051100;28;4638;-77
2023/06/19 06:31:42;;;;;;;;;;;;;;;20.09;51.15;100572.69;5056586;28;4774;-77
2023/06/19 06:34:16;;;;;;;;;;;;;;;20.10;51.13;100573.50;5051591;28;4652;-77
2023/06/19 06:36:43;;;;;;;;;;;;;;;20.11;51.41;100578.69;5053664;28;5572;-77
2023/06/19 06:39:09;;;;;;;;;;;;;;;20.10;51.43;100576.25;5051221;28;6434;-77
2023/06/19 06:41:36;;;;;;;;;;;;;;;20.08;51.31;100576.50;5059746;28;4638;-76
2023/06/19 06:44:02;;;;;;;;;;;;;;;20.09;51.38;100569.13;5055917;28;4822;-76
2023/06/19 06:46:29;;;;;;;;;;;;;;;20.09;51.28;100564.50;5060905;28;4862;-78
2023/06/19 06:48:55;;;;;;;;;;;;;;;20.13;51.28;100572.94;5060697;28;4809;-75
2023/06/19 06:51:22;;;;;;;;;;;;;;;20.08;51.10;100571.03;5061069;28;4950;-76
2023/06/19 06:53:49;;;;;;;;;;;;;;;20.07;51.35;100572.16;5056495;28;4945;-77
2023/06/19 06:56:21;;;;;;;;;;;;;;;20.11;51.25;100567.75;5061274;28;5408;-75
2023/06/19 06:58:47;;;;;;;;;;;;;;;20.09;51.10;100577.31;5061923;28;4893;-75
2023/06/19 07:01:25;;;;;;;;;;;;;;;20.09;51.08;100571.84;5057211;28;4700;-75
2023/06/19 07:04:01;;;;;;;;;;;;;;;20.07;51.20;100577.63;5063517;28;5311;-78
2023/06/19 07:06:28;;;;;;;;;;;;;;;20.26;50.54;100574.22;5060659;28;5441;-77
2023/06/19 07:08:54;;;;;;;;;;;;;;;20.16;51.04;100577.84;5059836;28;4829;-76
2023/06/19 07:11:21;;;;;;;;;;;;;;;20.09;51.32;100575.44;5063875;28;5456;-74
2023/06/19 07:13:47;;;;;;;;;;;;;;;20.15;50.90;100576.22;5060075;28;4939;-75
2023/06/19 07:16:14;;;;;;;;;;;;;;;20.19;51.04;100580.00;5059715;28;4911;-78
2023/06/19 07:18:41;;;;;;;;;;;;;;;20.21;51.19;100583.28;5059242;28;4954;-77
2023/06/19 07:21:10;;;;;;;;;;;;;;;20.32;50.76;100593.03;5060690;28;5181;-76
2023/06/19 07:23:37;;;;;;;;;;;;;;;20.23;50.87;100574.78;5061574;28;5417;-77
2023/06/19 07:26:03;;;;;;;;;;;;;;;20.35;50.50;100581.56;5058513;28;4823;-77
2023/06/19 07:28:31;;;;;;;;;;;;;;;20.43;50.01;100586.41;5061236;28;5449;-75
2023/06/19 07:30:57;;;;;;;;;;;;;;;20.53;49.79;100577.34;5059413;28;5010;-77
2023/06/19 07:33:29;;;;;;;;;;;;;;;20.53;50.03;100582.81;5059384;28;5307;-76
2023/06/19 07:36:06;;;;;;;;;;;;;;;20.43;50.44;100577.38;5043380;28;4986;-76
2023/06/19 07:38:33;;;;;;;;;;;;;;;20.60;49.79;100572.34;5060634;28;5003;-78
2023/06/19 07:40:59;;;;;;;;;;;;;;;20.67;49.52;100571.22;5062248;28;4933;-76
2023/06/19 07:43:25;;;;;;;;;;;;;;;20.77;49.39;100569.22;5060135;28;4903;-76
2023/06/19 07:45:57;;;;;;;;;;;;;;;20.70;49.47;100567.91;5059048;28;4962;-79
2023/06/19 07:48:24;;;;;;;;;;;;;;;20.87;49.27;100573.78;5079493;28;4167;-77
2023/06/19 07:50:53;;;;;;;;;;;;;;;20.53;50.00;100571.03;5081127;28;1382;-75
2023/06/19 07:53:20;;;;;;;;;;;;;;;20.94;48.92;100570.69;5060829;28;5365;-76
2023/06/19 07:55:57;;;;;;;;;;;;;;;20.78;49.42;100568.09;5042196;28;4907;-75
2023/06/19 07:58:23;;;;;;;;;;;;;;;20.81;49.19;100573.00;5056844;28;4887;-77
2023/06/19 08:00:50;;;;;;;;;;;;;;;20.57;49.65;100574.84;5055887;28;5109;-75
2023/06/19 08:03:17;;;;;;;;;;;;;;;20.57;49.86;100581.13;5056014;28;5193;-76
2023/06/19 08:05:43;;;;;;;;;;;;;;;20.58;49.93;100568.28;5062620;28;4767;-76
2023/06/19 08:08:16;;;;;;;;;;;;;;;20.41;50.27;100574.94;5040745;28;4865;-77
2023/06/19 08:10:43;;;;;;;;;;;;;;;20.27;50.74;100582.16;5043711;28;5334;-77
2023/06/19 08:13:11;;;;;;;;;;;;;;;20.26;50.64;100580.50;5059380;28;4889;-76
2023/06/19 08:15:37;;;;;;;;;;;;;;;20.26;50.73;100582.44;5058364;28;4996;-77
2023/06/19 08:18:04;;;;;;;;;;;;;;;20.19;50.94;100580.00;5056706;28;4849;-77
2023/06/19 08:20:30;;;;;;;;;;;;;;;20.20;50.89;100587.09;5050824;28;4751;-77
2023/06/19 08:23:07;;;;;;;;;;;;;;;20.15;50.98;100590.72;5050713;28;5490;-77
2023/06/19 08:25:35;;;;;;;;;;;;;;;20.14;50.97;100591.78;5056112;28;4762;-77
2023/06/19 08:28:01;;;;;;;;;;;;;;;20.15;51.33;100593.44;5037496;28;4781;-77
2023/06/19 08:30:28;;;;;;;;;;;;;;;20.14;51.37;100594.53;5053516;28;5491;-77
2023/06/19 08:33:04;;;;;;;;;;;;;;;20.15;51.21;100589.91;5038301;28;5574;-77
2023/06/19 08:35:34;;;;;;;;;;;;;;;20.14;51.47;100582.78;5051348;28;4767;-76
2023/06/19 08:38:02;;;;;;;;;;;;;;;20.14;51.11;100596.44;5052393;28;5063;-78
2023/06/19 08:40:28;;;;;;;;;;;;;;;20.14;51.52;100586.31;5055108;28;4703;-77
2023/06/19 08:42:55;;;;;;;;;;;;;;;20.16;51.26;100583.31;5051756;28;5157;-78
2023/06/19 08:45:24;;;;;;;;;;;;;;;20.14;51.37;100582.78;5051458;28;4885;-77
2023/06/19 08:48:02;;;;;;;;;;;;;;;20.11;51.37;100588.81;5052184;28;5224;-77
2023/06/19 08:50:28;;;;;;;;;;;;;;;20.11;51.67;100583.34;5058659;28;4827;-78
2023/06/19 08:52:55;;;;;;;;;;;;;;;20.09;51.38;100578.16;5055359;28;4819;-77
2023/06/19 08:55:21;;;;;;;;;;;;;;;20.11;51.39;100583.34;5031110;28;5220;-76
2023/06/19 08:57:51;;;;;;;;;;;;;;;20.11;51.66;100577.88;5061418;28;5359;-75
2023/06/19 09:00:18;;;;;;;;;;;;;;;20.12;51.65;100580.34;5057328;28;5424;-77
2023/06/19 09:02:44;;;;;;;;;;;;;;;20.12;51.68;100588.53;5036037;28;5619;-77
2023/06/19 09:05:21;;;;;;;;;;;;;;;20.14;51.67;100588.25;5041991;28;4897;-76
2023/06/19 09:07:47;;;;;;;;;;;;;;;20.15;51.35;100589.91;5061247;28;4945;-77
2023/06/19 09:10:16;;;;;;;;;;;;;;;20.13;51.53;100587.44;5051569;28;4811;-73
2023/06/19 09:12:42;;;;;;;;;;;;;;;20.17;51.65;100593.13;5052784;28;4893;-76
2023/06/19 09:15:09;;;;;;;;;;;;;;;20.16;51.55;100588.78;5060985;28;4889;-75
2023/06/19 09:17:35;;;;;;;;;;;;;;;20.16;51.52;100586.06;5059340;28;4940;-77
2023/06/19 09:20:11;;;;;;;;;;;;;;;20.18;51.29;100590.13;5061428;28;4956;-75
2023/06/19 09:22:38;;;;;;;;;;;;;;;20.18;51.41;100594.78;5057826;28;5370;-75
2023/06/19 09:25:04;;;;;;;;;;;;;;;20.18;51.36;100592.88;5057777;28;5277;-76
2023/06/19 09:27:31;;;;;;;;;;;;;;;20.20;51.74;100595.31;5057389;28;5017;-75
2023/06/19 09:29:58;;;;;;;;;;;;;;;20.20;51.38;100598.03;5058277;28;4930;-76
2023/06/19 09:32:28;;;;;;;;;;;;;;;20.20;51.34;100590.66;5042669;28;4938;-75
2023/06/19 09:34:58;;;;;;;;;;;;;;;20.21;51.61;100575.09;5056956;28;4912;-75
2023/06/19 09:37:27;;;;;;;;;;;;;;;20.19;51.34;100586.28;5053928;28;4938;-76
2023/06/19 09:40:09;;;;;;;;;;;;;;;20.22;51.66;100589.56;5058024;28;5390;-74
2023/06/19 09:42:46;;;;;;;;;;;;;;;20.21;51.55;100586.03;5058712;28;4894;-75
2023/06/19 09:45:14;;;;;;;;;;;;;;;20.22;51.44;100592.31;5056389;28;4889;-76
2023/06/19 09:47:51;;;;;;;;;;;;;;;20.22;51.68;100581.38;5060515;28;5450;-75
2023/06/19 09:50:18;;;;;;;;;;;;;;;20.23;51.30;100589.28;5048877;28;4695;-75
2023/06/19 09:52:44;;;;;;;;;;;;;;;20.22;51.53;100590.38;5036165;28;5078;-76
2023/06/19 09:55:13;;;;;;;;;;;;;;;20.24;51.34;100587.38;5048946;28;4801;-77
2023/06/19 09:57:39;;;;;;;;;;;;;;;20.23;51.51;100583.81;5042282;28;4841;-74
2023/06/19 10:00:11;;;;;;;;;;;;;;;20.23;51.50;100575.59;5043960;28;4883;-76
2023/06/19 10:02:45;;;;;;;;;;;;;;;20.24;51.80;100577.25;5026480;28;4824;-78
2023/06/19 10:05:14;;;;;;;;;;;;;;;20.23;51.62;100575.59;5025995;28;5336;-76
2023/06/19 10:07:41;;;;;;;;;;;;;;;20.25;51.81;100580.81;5043087;28;4871;-76
2023/06/19 10:10:08;;;;;;;;;;;;;;;20.25;51.68;100569.88;5045810;28;5029;-76
2023/06/19 10:12:38;;;;;;;;;;;;;;;20.27;51.50;100573.94;5044281;28;4844;-76
2023/06/19 10:15:09;;;;;;;;;;;;;;;20.26;51.67;100568.75;5062942;28;4902;-77
2023/06/19 10:17:36;;;;;;;;;;;;;;;20.28;51.41;100569.28;5064554;28;4867;-75
2023/06/19 10:20:03;;;;;;;;;;;;;;;20.26;51.49;100561.34;5061101;28;4878;-74
2023/06/19 10:22:36;;;;;;;;;;;;;;;20.27;51.81;100562.19;5062815;28;5510;-76
2023/06/19 10:25:02;;;;;;;;;;;;;;;20.26;51.55;100561.34;5060334;28;4845;-76
2023/06/19 10:27:31;;;;;;;;;;;;;;;20.26;51.58;100555.88;5059717;28;5353;-76
2023/06/19 10:29:58;;;;;;;;;;;;;;;20.26;51.67;100558.63;5065677;28;4991;-76
2023/06/19 10:32:25;;;;;;;;;;;;;;;20.27;51.70;100554.81;5058915;28;4877;-76
2023/06/19 10:34:58;;;;;;;;;;;;;;;20.25;51.82;100548.78;5061064;28;5232;-76
2023/06/19 10:37:26;;;;;;;;;;;;;;;20.26;51.90;100553.16;5064327;28;4837;-75
2023/06/19 10:40:08;;;;;;;;;;;;;;;20.26;51.53;100549.59;5061895;28;5445;-74
2023/06/19 10:42:34;;;;;;;;;;;;;;;20.26;51.50;100552.34;5042762;28;5433;-78
2023/06/19 10:45:01;;;;;;;;;;;;;;;20.27;51.82;100559.47;5061135;28;4892;-77
2023/06/19 10:47:28;;;;;;;;;;;;;;;20.26;51.83;100558.63;5043089;28;4838;-77
2023/06/19 10:49:55;;;;;;;;;;;;;;;20.26;51.82;100555.06;5050344;28;4895;-75
2023/06/19 10:52:24;;;;;;;;;;;;;;;20.26;51.77;100542.22;5040375;28;4856;-76
2023/06/19 10:55:01;;;;;;;;;;;;;;;20.25;51.80;100540.59;5041309;28;4944;-76
2023/06/19 10:57:28;;;;;;;;;;;;;;;20.26;51.70;100541.41;5039576;28;5483;-76
2023/06/19 10:59:55;;;;;;;;;;;;;;;20.24;51.83;100547.19;5037896;28;4870;-75
2023/06/19 11:02:26;;;;;;;;;;;;;;;20.25;51.61;100543.34;5041054;28;5494;-76
2023/06/19 11:04:52;;;;;;;;;;;;;;;20.27;51.62;100540.31;5043052;28;4994;-76
2023/06/19 11:07:19;;;;;;;;;;;;;;;20.27;51.45;100537.59;5038238;28;4877;-75
2023/06/19 11:09:45;;;;;;;;;;;;;;;20.28;51.83;100542.75;5040645;28;5470;-76
2023/06/19 11:12:21;;;;;;;;;;;;;;;20.27;51.65;100546.59;5041142;28;4884;-75
2023/06/19 11:14:48;;;;;;;;;;;;;;;20.27;51.82;100532.94;5040932;28;5422;-76
2023/06/19 11:17:23;;;;;;;;;;;;;;;20.28;51.92;100534.56;5041392;28;4889;-77
2023/06/19 11:19:53;;;;;;;;;;;;;;;20.28;51.91;100537.28;5040727;28;4918;-77
2023/06/19 11:22:20;;;;;;;;;;;;;;;20.28;51.93;100533.75;5037073;28;5002;-77
2023/06/19 11:24:53;;;;;;;;;;;;;;;20.29;51.88;100533.44;5039915;28;5007;-77
2023/06/19 11:27:24;;;;;;;;;;;;;;;20.29;51.86;100535.38;5039612;28;4831;-77
2023/06/19 11:29:51;;;;;;;;;;;;;;;20.28;51.59;100531.81;5035464;28;5408;-76
2023/06/19 11:32:24;;;;;;;;;;;;;;;20.30;51.77;100526.09;5025616;28;4841;-77
2023/06/19 11:35:16;;;;;;;;;;;;;;;20.30;51.60;100532.34;5022168;28;4698;-77
2023/06/19 11:38:08;;;;;;;;;;;;;;;20.30;51.52;100528.81;5027159;28;5470;-76
2023/06/19 11:40:54;;;;;;;;;;;;;;;20.31;51.81;100527.69;5021923;28;5430;-76
2023/06/19 11:43:24;;;;;;;;;;;;;;;20.31;51.60;100539.44;5024190;28;5052;-75
2023/06/19 11:46:10;;;;;;;;;;;;;;;20.32;51.85;100537.53;5036981;28;5590;-76
2023/06/19 11:48:47;;;;;;;;;;;;;;;20.32;51.67;100538.34;5043772;28;4897;-77
2023/06/19 11:51:24;;;;;;;;;;;;;;;20.56;51.09;100543.09;5059684;28;5390;-76
2023/06/19 11:54:09;;;;;;;;;;;;;;;20.44;51.53;100540.72;5041329;28;4767;-77
2023/06/19 11:56:56;;;;;;;;;;;;;;;20.40;51.79;100540.47;5038645;28;5364;-76
2023/06/19 11:59:42;;;;;;;;;;;;;;;20.37;51.68;100538.31;5037757;28;5480;-77
2023/06/19 12:02:34;;;;;;;;;;;;;;;20.38;51.82;100542.69;5039739;28;5469;-77
2023/06/19 12:05:21;;;;;;;;;;;;;;;20.38;52.21;100539.13;5040873;28;5208;-78
2023/06/19 12:08:07;;;;;;;;;;;;;;;20.39;51.93;100536.13;5036539;28;5517;-76
2023/06/19 12:10:59;;;;;;;;;;;;;;;20.39;52.22;100527.91;5044642;28;5079;-76
2023/06/19 12:13:53;;;;;;;;;;;;;;;20.39;52.34;100527.09;5053236;28;5524;-76
2023/06/19 12:16:44;;;;;;;;;;;;;;;20.39;52.29;100527.91;5051008;28;4885;-75
2023/06/19 12:19:35;;;;;;;;;;;;;;;20.40;52.50;100524.06;5054121;28;4960;-75
2023/06/19 12:22:27;;;;;;;;;;;;;;;20.40;52.11;100526.00;5052877;28;4885;-76
2023/06/19 12:25:19;;;;;;;;;;;;;;;20.40;52.25;100515.03;5052689;28;5485;-77
2023/06/19 12:28:16;;;;;;;;;;;;;;;20.40;52.33;100515.84;5053368;28;5554;-75
2023/06/19 12:31:08;;;;;;;;;;;;;;;20.40;52.35;100504.09;5054284;28;4806;-78
2023/06/19 12:34:01;;;;;;;;;;;;;;;20.40;52.24;100507.66;5054524;28;4933;-76
2023/06/19 12:36:52;;;;;;;;;;;;;;;20.42;52.24;100501.91;5046185;28;4755;-77
2023/06/19 12:39:44;;;;;;;;;;;;;;;20.42;52.58;100505.47;5036874;28;4948;-77
2023/06/19 12:42:36;;;;;;;;;;;;;;;20.43;52.38;100504.34;5031562;28;5133;-77
2023/06/19 12:45:28;;;;;;;;;;;;;;;20.43;52.31;100504.34;5037687;28;4910;-75
2023/06/19 12:48:19;;;;;;;;;;;;;;;20.45;52.24;100503.25;5037606;28;4929;-77
2023/06/19 12:51:11;;;;;;;;;;;;;;;20.46;52.32;100499.41;5037711;28;4865;-74
2023/06/19 12:54:03;;;;;;;;;;;;;;;20.47;52.20;100507.34;5036564;28;5305;-75
2023/06/19 12:56:55;;;;;;;;;;;;;;;20.46;52.20;100504.88;5055531;28;4843;-75
2023/06/19 12:59:47;;;;;;;;;;;;;;;20.46;52.55;100505.69;5053528;28;4847;-77
2023/06/19 13:02:39;;;;;;;;;;;;;;;20.47;52.24;100507.34;5054131;28;4871;-78
2023/06/19 13:05:30;;;;;;;;;;;;;;;20.48;52.18;100502.69;5053686;28;4900;-76